Terminal Aerodrome Forecast
Issued by NWS

Home | Current Version | Previous Version | Text Only | Print | Product List | Glossary On
Versions: 1 2 3 4 5 6 7 8 9 10 11 12 13 14 15
000
FTPA31 PHFO 280530
TAFHOG
TAF
PHOG 280530Z 2806/2906 05010KT P6SM VCSH FEW020 SCT035 BKN060
     FM282100 05016G22KT P6SM FEW035 SCT060
      AMD LTD TO VIS AND WIND 2809/2816=

USA.gov is the U.S. government's official web portal to all federal, state and local government web resources and services.